Time;durP1;ratioP1;P1;durP2;ratioP2;P2;SDS_P1;SDS_P2;PMS_P1;PMS_P2;Temp;Humidity;BMP_temperature;BMP_pressure;BME280_temperature;BME280_humidity;BME280_pressure;Samples;Min_cycle;Max_cycle;Signal;HPM_P1;HPM_P2
2021/01/15 00:01:32;;;;;;;21.95;13.38;;;;;;;;;;4987575;28;20030;-62
2021/01/15 00:03:58;;;;;;;26.48;13.50;;;;;;;;;;4983612;28;20156;-62
2021/01/15 00:06:24;;;;;;;27.80;13.95;;;;;;;;;;4992245;28;20113;-62
2021/01/15 00:08:51;;;;;;;25.95;12.80;;;;;;;;;;4986563;28;20329;-62
2021/01/15 00:11:21;;;;;;;25.73;14.40;;;;;;;;;;4982007;28;20482;-62
2021/01/15 00:13:47;;;;;;;27.65;13.00;;;;;;;;;;4982659;28;22054;-62
2021/01/15 00:16:19;;;;;;;21.05;11.82;;;;;;;;;;4981478;28;20053;-62
2021/01/15 00:18:45;;;;;;;24.80;12.90;;;;;;;;;;4980946;28;20863;-61
2021/01/15 00:21:18;;;;;;;24.23;12.70;;;;;;;;;;4985523;28;20046;-61
2021/01/15 00:23:44;;;;;;;28.70;14.55;;;;;;;;;;4981230;28;20076;-62
2021/01/15 00:26:16;;;;;;;27.92;13.70;;;;;;;;;;4985334;28;20563;-62
2021/01/15 00:28:42;;;;;;;23.77;12.93;;;;;;;;;;4983660;28;20041;-62
2021/01/15 00:31:08;;;;;;;27.10;13.32;;;;;;;;;;4985868;28;20296;-62
2021/01/15 00:33:34;;;;;;;32.40;13.77;;;;;;;;;;4982477;28;20042;-61
2021/01/15 00:36:00;;;;;;;27.50;13.90;;;;;;;;;;4982209;28;20041;-62
2021/01/15 00:38:26;;;;;;;27.85;13.70;;;;;;;;;;4982837;28;20407;-61
2021/01/15 00:41:03;;;;;;;27.40;13.63;;;;;;;;;;4986835;28;20061;-62
2021/01/15 00:43:29;;;;;;;27.85;13.85;;;;;;;;;;4987652;28;20117;-61
2021/01/15 00:45:58;;;;;;;27.30;13.77;;;;;;;;;;4990036;28;20049;-61
2021/01/15 00:48:24;;;;;;;31.30;14.13;;;;;;;;;;4995068;28;20437;-61
2021/01/15 00:50:50;;;;;;;26.83;13.55;;;;;;;;;;4989022;28;20030;-62
2021/01/15 00:53:16;;;;;;;29.63;14.73;;;;;;;;;;4985127;28;20049;-62
2021/01/15 00:55:42;;;;;;;28.63;14.63;;;;;;;;;;4989196;28;20030;-62
2021/01/15 00:58:12;;;;;;;30.60;14.00;;;;;;;;;;4988626;28;20045;-62
2021/01/15 01:00:38;;;;;;;24.95;13.55;;;;;;;;;;4992394;28;20419;-62
2021/01/15 01:03:06;;;;;;;27.67;13.93;;;;;;;;;;4983825;28;20063;-62
2021/01/15 01:05:32;;;;;;;30.10;14.13;;;;;;;;;;4987362;28;20049;-62
2021/01/15 01:07:58;;;;;;;26.45;13.10;;;;;;;;;;4986691;28;20042;-62
2021/01/15 01:10:24;;;;;;;27.83;13.85;;;;;;;;;;4982158;28;20038;-62
2021/01/15 01:12:49;;;;;;;26.40;14.23;;;;;;;;;;4981585;28;20046;-62
2021/01/15 01:15:16;;;;;;;30.95;14.50;;;;;;;;;;4985912;28;20049;-62
2021/01/15 01:17:42;;;;;;;25.42;13.35;;;;;;;;;;4980660;28;20041;-62
2021/01/15 01:20:09;;;;;;;26.30;13.68;;;;;;;;;;4985937;28;20044;-62
2021/01/15 01:22:35;;;;;;;25.20;13.82;;;;;;;;;;4989280;28;20037;-62
2021/01/15 01:25:01;;;;;;;29.10;14.93;;;;;;;;;;4985833;28;20030;-62
2021/01/15 01:27:27;;;;;;;33.10;13.93;;;;;;;;;;4985925;28;20037;-62
2021/01/15 01:29:53;;;;;;;25.02;12.88;;;;;;;;;;4987936;28;20046;-62
2021/01/15 01:32:19;;;;;;;26.63;13.85;;;;;;;;;;4987026;28;20544;-62
2021/01/15 01:34:45;;;;;;;30.90;14.13;;;;;;;;;;4985642;28;20092;-62
2021/01/15 01:37:11;;;;;;;27.88;13.20;;;;;;;;;;4982185;28;20038;-62
2021/01/15 01:39:37;;;;;;;28.83;14.38;;;;;;;;;;4985774;28;20058;-62
2021/01/15 01:42:03;;;;;;;29.73;13.48;;;;;;;;;;4983289;28;20426;-62
2021/01/15 01:44:29;;;;;;;31.08;13.40;;;;;;;;;;4988182;28;20037;-62
2021/01/15 01:46:55;;;;;;;26.60;12.90;;;;;;;;;;4986784;28;20030;-62
2021/01/15 01:49:22;;;;;;;27.70;13.73;;;;;;;;;;4984455;28;20030;-62
2021/01/15 01:51:51;;;;;;;22.25;12.98;;;;;;;;;;4983517;28;20240;-62
2021/01/15 01:54:17;;;;;;;24.77;13.20;;;;;;;;;;4985411;28;20037;-62
2021/01/15 01:56:46;;;;;;;25.15;13.45;;;;;;;;;;4989866;28;20038;-62
2021/01/15 01:59:15;;;;;;;24.27;13.05;;;;;;;;;;4987178;28;20031;-62
2021/01/15 02:01:41;;;;;;;28.08;14.43;;;;;;;;;;4983105;28;20038;-62
2021/01/15 02:04:07;;;;;;;27.15;13.68;;;;;;;;;;4982459;28;20080;-62
2021/01/15 02:06:34;;;;;;;29.92;13.75;;;;;;;;;;4990415;28;20555;-62
2021/01/15 02:09:03;;;;;;;30.40;14.45;;;;;;;;;;4990717;28;20034;-62
2021/01/15 02:11:45;;;;;;;27.15;13.70;;;;;;;;;;4981221;28;20037;-62
2021/01/15 02:14:30;;;;;;;28.67;14.13;;;;;;;;;;4975486;28;20052;-62
2021/01/15 02:16:56;;;;;;;24.98;12.93;;;;;;;;;;4987037;28;20112;-62
2021/01/15 02:19:22;;;;;;;25.83;13.60;;;;;;;;;;4984889;28;20041;-62
2021/01/15 02:21:54;;;;;;;27.13;13.98;;;;;;;;;;4987441;28;20034;-62
2021/01/15 02:24:20;;;;;;;28.98;13.90;;;;;;;;;;4980192;28;20570;-62
2021/01/15 02:27:05;;;;;;;30.95;14.80;;;;;;;;;;4982229;28;20529;-62
2021/01/15 02:29:31;;;;;;;31.33;15.27;;;;;;;;;;4991499;28;20917;-62
2021/01/15 02:32:16;;;;;;;26.95;14.00;;;;;;;;;;4991704;28;20129;-62
2021/01/15 02:34:45;;;;;;;28.40;14.57;;;;;;;;;;4987894;28;20030;-62
2021/01/15 02:37:18;;;;;;;30.52;13.73;;;;;;;;;;4987246;28;20103;-62
2021/01/15 02:39:50;;;;;;;29.60;14.52;;;;;;;;;;4986327;28;20034;-62
2021/01/15 02:42:17;;;;;;;33.80;14.35;;;;;;;;;;4987385;28;20415;-62
2021/01/15 02:44:47;;;;;;;29.85;14.00;;;;;;;;;;4987871;28;20048;-62
2021/01/15 02:47:18;;;;;;;31.00;14.35;;;;;;;;;;4986473;28;20049;-62
2021/01/15 02:49:44;;;;;;;33.85;14.75;;;;;;;;;;4981199;28;20492;-62
2021/01/15 02:52:10;;;;;;;28.13;15.07;;;;;;;;;;4987442;28;20076;-62
2021/01/15 02:54:37;;;;;;;27.42;14.15;;;;;;;;;;4983590;28;20050;-62
2021/01/15 02:57:03;;;;;;;26.30;13.88;;;;;;;;;;4987112;28;20141;-62
2021/01/15 02:59:29;;;;;;;27.08;13.77;;;;;;;;;;4989466;28;20057;-62
2021/01/15 03:01:58;;;;;;;30.65;14.93;;;;;;;;;;4980839;28;20038;-61
2021/01/15 03:04:32;;;;;;;29.02;13.98;;;;;;;;;;4978103;28;20045;-62
2021/01/15 03:06:59;;;;;;;29.40;15.30;;;;;;;;;;4984500;28;20042;-62
2021/01/15 03:09:29;;;;;;;36.85;15.07;;;;;;;;;;4984685;28;20050;-62
2021/01/15 03:11:59;;;;;;;28.35;15.63;;;;;;;;;;4983087;28;20479;-62
2021/01/15 03:14:26;;;;;;;35.92;15.95;;;;;;;;;;4975146;28;20456;-62
2021/01/15 03:16:54;;;;;;;33.20;15.63;;;;;;;;;;4984237;28;20480;-62
2021/01/15 03:19:20;;;;;;;32.53;15.77;;;;;;;;;;4980256;28;20034;-62
2021/01/15 03:21:50;;;;;;;29.17;14.60;;;;;;;;;;4980318;28;20320;-62
2021/01/15 03:24:16;;;;;;;33.88;16.08;;;;;;;;;;4979198;28;20922;-62
2021/01/15 03:26:42;;;;;;;35.05;16.75;;;;;;;;;;4985429;28;20185;-61
2021/01/15 03:29:13;;;;;;;32.95;16.08;;;;;;;;;;4982792;28;20042;-62
2021/01/15 03:31:42;;;;;;;36.03;16.77;;;;;;;;;;4981831;28;20157;-62
2021/01/15 03:34:08;;;;;;;34.85;17.35;;;;;;;;;;4981909;28;20076;-61
2021/01/15 03:36:35;;;;;;;35.25;17.08;;;;;;;;;;4973790;28;20522;-62
2021/01/15 03:39:01;;;;;;;33.78;15.65;;;;;;;;;;4981638;28;24486;-62
2021/01/15 03:41:27;;;;;;;33.63;17.27;;;;;;;;;;4976215;28;20343;-62
2021/01/15 03:43:55;;;;;;;36.50;16.63;;;;;;;;;;4974598;28;20037;-62
2021/01/15 03:46:21;;;;;;;36.30;16.77;;;;;;;;;;4981883;28;20030;-62
2021/01/15 03:48:47;;;;;;;43.67;17.92;;;;;;;;;;4983598;28;20446;-61
2021/01/15 03:51:13;;;;;;;40.80;17.85;;;;;;;;;;4984022;28;20072;-61
2021/01/15 03:53:44;;;;;;;40.10;17.77;;;;;;;;;;4978755;28;20046;-62
2021/01/15 03:56:10;;;;;;;38.05;17.60;;;;;;;;;;4983310;28;20042;-61
2021/01/15 03:58:36;;;;;;;39.33;18.17;;;;;;;;;;4985846;28;20046;-61
2021/01/15 04:01:02;;;;;;;39.03;17.50;;;;;;;;;;4984514;28;20050;-62
2021/01/15 04:03:28;;;;;;;40.20;18.38;;;;;;;;;;4980681;28;20454;-62
2021/01/15 04:05:54;;;;;;;40.25;19.20;;;;;;;;;;4984115;28;20064;-62
2021/01/15 04:08:20;;;;;;;36.88;16.92;;;;;;;;;;4981824;28;20076;-62
2021/01/15 04:10:46;;;;;;;38.03;18.17;;;;;;;;;;4978573;28;20485;-61
2021/01/15 04:13:12;;;;;;;43.42;18.67;;;;;;;;;;4979936;28;20046;-62
2021/01/15 04:15:38;;;;;;;39.38;18.75;;;;;;;;;;4978252;28;20072;-62
2021/01/15 04:18:04;;;;;;;35.90;17.83;;;;;;;;;;4979299;28;20057;-62
2021/01/15 04:20:30;;;;;;;39.13;17.88;;;;;;;;;;4974113;28;21457;-61
2021/01/15 04:22:56;;;;;;;40.78;18.15;;;;;;;;;;4980657;28;20034;-62
2021/01/15 04:25:21;;;;;;;44.53;18.50;;;;;;;;;;4978795;28;20065;-62
2021/01/15 04:27:47;;;;;;;48.25;18.38;;;;;;;;;;4978816;28;20053;-61
2021/01/15 04:30:14;;;;;;;43.83;19.33;;;;;;;;;;4976939;28;20049;-61
2021/01/15 04:32:44;;;;;;;44.55;19.05;;;;;;;;;;4975727;28;20037;-61
2021/01/15 04:35:10;;;;;;;41.80;17.85;;;;;;;;;;4979696;28;20038;-61
2021/01/15 04:37:36;;;;;;;44.15;17.98;;;;;;;;;;4977017;28;20173;-61
2021/01/15 04:40:03;;;;;;;41.40;18.85;;;;;;;;;;4978251;28;20045;-62
2021/01/15 04:42:32;;;;;;;39.20;18.38;;;;;;;;;;4981360;28;20038;-62
2021/01/15 04:44:58;;;;;;;40.25;18.77;;;;;;;;;;4974279;28;20447;-62
2021/01/15 04:47:26;;;;;;;44.08;19.83;;;;;;;;;;4982844;28;20037;-62
2021/01/15 04:49:52;;;;;;;48.53;20.15;;;;;;;;;;4976594;28;20041;-62
2021/01/15 04:52:19;;;;;;;43.38;18.63;;;;;;;;;;4975722;28;20078;-62
2021/01/15 04:54:54;;;;;;;39.53;18.17;;;;;;;;;;4974221;28;20045;-62
2021/01/15 04:57:20;;;;;;;42.95;20.02;;;;;;;;;;4977429;28;20034;-62
2021/01/15 04:59:47;;;;;;;41.28;18.95;;;;;;;;;;4979472;28;20077;-62
2021/01/15 05:02:14;;;;;;;45.53;19.88;;;;;;;;;;4975078;28;20129;-62
2021/01/15 05:04:40;;;;;;;37.60;18.83;;;;;;;;;;4975825;28;20042;-62
2021/01/15 05:07:07;;;;;;;40.05;18.60;;;;;;;;;;4982799;28;20052;-62
2021/01/15 05:09:48;;;;;;;49.85;21.08;;;;;;;;;;4972530;28;20391;-62
2021/01/15 05:12:15;;;;;;;39.40;19.55;;;;;;;;;;4975474;28;20115;-62
2021/01/15 05:14:48;;;;;;;42.75;18.25;;;;;;;;;;4975363;28;20033;-62
2021/01/15 05:17:15;;;;;;;42.05;17.85;;;;;;;;;;4975928;28;20372;-61
2021/01/15 05:19:42;;;;;;;38.15;18.42;;;;;;;;;;4984885;28;20046;-61
2021/01/15 05:22:08;;;;;;;43.67;19.55;;;;;;;;;;4975903;28;20031;-62
2021/01/15 05:24:35;;;;;;;42.35;19.30;;;;;;;;;;4976823;28;20042;-62
2021/01/15 05:27:02;;;;;;;42.60;19.45;;;;;;;;;;4980440;28;21501;-62
2021/01/15 05:29:28;;;;;;;40.00;19.45;;;;;;;;;;4983872;28;20034;-62
2021/01/15 05:31:54;;;;;;;42.33;19.23;;;;;;;;;;4984958;28;20073;-62
2021/01/15 05:34:21;;;;;;;44.97;20.00;;;;;;;;;;4976766;28;20026;-62
2021/01/15 05:36:48;;;;;;;42.20;19.10;;;;;;;;;;4982724;28;20038;-62
2021/01/15 05:39:13;;;;;;;41.60;18.20;;;;;;;;;;4981876;28;20050;-62
2021/01/15 05:41:40;;;;;;;40.42;18.38;;;;;;;;;;4988916;28;20046;-62
2021/01/15 05:44:06;;;;;;;40.05;18.75;;;;;;;;;;4976807;28;20030;-65
2021/01/15 05:46:32;;;;;;;44.00;19.90;;;;;;;;;;4989642;28;20049;-63
2021/01/15 05:49:08;;;;;;;46.80;20.23;;;;;;;;;;4983914;28;20449;-62
2021/01/15 05:51:35;;;;;;;43.33;19.55;;;;;;;;;;4980895;28;20648;-62
2021/01/15 05:54:02;;;;;;;42.15;19.88;;;;;;;;;;4983260;28;20088;-62
2021/01/15 05:56:39;;;;;;;42.25;19.38;;;;;;;;;;4989837;28;20044;-62
2021/01/15 05:59:13;;;;;;;37.42;18.15;;;;;;;;;;4991470;28;20045;-62
2021/01/15 06:01:42;;;;;;;40.78;18.40;;;;;;;;;;4982085;28;20133;-62
2021/01/15 06:04:09;;;;;;;41.88;18.88;;;;;;;;;;4983804;28;20042;-62
2021/01/15 06:06:36;;;;;;;40.55;19.02;;;;;;;;;;4980643;28;20354;-62
2021/01/15 06:09:06;;;;;;;43.03;19.60;;;;;;;;;;4991915;28;20452;-62
2021/01/15 06:11:33;;;;;;;40.40;18.67;;;;;;;;;;4979748;28;20034;-62
2021/01/15 06:13:59;;;;;;;41.33;19.98;;;;;;;;;;4976890;28;20499;-62
2021/01/15 06:16:25;;;;;;;40.60;19.05;;;;;;;;;;4989341;28;20045;-62
2021/01/15 06:19:03;;;;;;;36.97;18.38;;;;;;;;;;4982146;28;20065;-65
2021/01/15 06:21:35;;;;;;;39.05;18.15;;;;;;;;;;4979644;28;20076;-65
2021/01/15 06:24:09;;;;;;;39.13;17.55;;;;;;;;;;4979125;28;20046;-63
2021/01/15 06:26:39;;;;;;;46.47;18.73;;;;;;;;;;4985328;28;20368;-62
2021/01/15 06:29:06;;;;;;;43.85;19.92;;;;;;;;;;4978724;28;20053;-62
2021/01/15 06:31:42;;;;;;;39.33;18.85;;;;;;;;;;4980043;28;20624;-62
2021/01/15 06:34:08;;;;;;;42.67;19.77;;;;;;;;;;4982885;28;20041;-62
2021/01/15 06:36:53;;;;;;;40.45;19.13;;;;;;;;;;4980324;28;20046;-62
2021/01/15 06:39:21;;;;;;;40.30;18.58;;;;;;;;;;4985644;28;20030;-62
2021/01/15 06:41:47;;;;;;;38.92;18.60;;;;;;;;;;4983682;28;20042;-62
2021/01/15 06:44:14;;;;;;;40.28;18.73;;;;;;;;;;4985090;28;20037;-62
2021/01/15 06:46:45;;;;;;;36.58;18.02;;;;;;;;;;4990641;28;20060;-62
2021/01/15 06:49:15;;;;;;;39.25;18.58;;;;;;;;;;4988431;28;20141;-62
2021/01/15 06:51:59;;;;;;;44.45;19.08;;;;;;;;;;4991833;28;20177;-62
2021/01/15 06:54:26;;;;;;;37.38;18.05;;;;;;;;;;4989762;28;20049;-62
2021/01/15 06:56:56;;;;;;;38.80;17.80;;;;;;;;;;4986217;28;20136;-62
2021/01/15 06:59:32;;;;;;;40.88;17.95;;;;;;;;;;4986689;28;20612;-62
2021/01/15 07:02:11;;;;;;;35.15;17.50;;;;;;;;;;4983239;28;20033;-62
2021/01/15 07:04:58;;;;;;;40.67;18.55;;;;;;;;;;4981858;28;20042;-62
2021/01/15 07:07:27;;;;;;;36.60;17.30;;;;;;;;;;4980682;28;20038;-62
2021/01/15 07:09:53;;;;;;;42.85;17.60;;;;;;;;;;4981352;28;20587;-62
2021/01/15 07:12:20;;;;;;;38.22;17.25;;;;;;;;;;4976851;28;20046;-62
2021/01/15 07:14:48;;;;;;;35.20;17.02;;;;;;;;;;4984386;28;20061;-62
2021/01/15 07:17:15;;;;;;;36.47;16.70;;;;;;;;;;4977728;28;20038;-62
2021/01/15 07:19:43;;;;;;;37.88;16.83;;;;;;;;;;4979078;28;20282;-62
2021/01/15 07:22:10;;;;;;;36.53;17.10;;;;;;;;;;4979201;28;20478;-66
2021/01/15 07:24:37;;;;;;;33.25;17.10;;;;;;;;;;4976564;28;20112;-63
2021/01/15 07:27:04;;;;;;;32.53;16.13;;;;;;;;;;4981255;28;20072;-62
2021/01/15 07:29:41;;;;;;;34.78;17.77;;;;;;;;;;4976013;28;20124;-62
2021/01/15 07:32:08;;;;;;;43.25;18.25;;;;;;;;;;4975588;28;20033;-62
2021/01/15 07:34:37;;;;;;;42.58;18.27;;;;;;;;;;4972693;28;20061;-62
2021/01/15 07:37:22;;;;;;;36.30;17.80;;;;;;;;;;4971961;28;20443;-62
2021/01/15 07:40:01;;;;;;;38.25;16.92;;;;;;;;;;4984818;28;20034;-62
2021/01/15 07:42:48;;;;;;;37.78;17.23;;;;;;;;;;4981055;28;20038;-62
2021/01/15 07:45:23;;;;;;;34.42;16.85;;;;;;;;;;4978209;28;20049;-62
2021/01/15 07:48:01;;;;;;;32.33;16.67;;;;;;;;;;4974607;28;20112;-62
2021/01/15 07:50:33;;;;;;;32.08;15.73;;;;;;;;;;4975007;28;20072;-62
2021/01/15 07:53:05;;;;;;;38.85;15.73;;;;;;;;;;4976192;28;20484;-62
2021/01/15 07:55:47;;;;;;;36.20;16.38;;;;;;;;;;4979257;28;20038;-62
2021/01/15 07:58:14;;;;;;;35.53;15.73;;;;;;;;;;4980824;28;20088;-62
2021/01/15 08:00:40;;;;;;;36.75;16.52;;;;;;;;;;4980473;28;20043;-62
2021/01/15 08:03:06;;;;;;;30.77;16.30;;;;;;;;;;4980513;28;20119;-62
2021/01/15 08:05:32;;;;;;;31.80;16.08;;;;;;;;;;4977822;28;20411;-62
2021/01/15 08:08:09;;;;;;;33.58;15.10;;;;;;;;;;4975160;28;20682;-62
2021/01/15 08:10:44;;;;;;;37.45;15.30;;;;;;;;;;4980755;28;20119;-62
2021/01/15 08:13:20;;;;;;;34.03;15.63;;;;;;;;;;4966946;28;20056;-62
2021/01/15 08:15:47;;;;;;;33.78;14.98;;;;;;;;;;4974689;28;20464;-62
2021/01/15 08:18:13;;;;;;;33.80;14.93;;;;;;;;;;4971742;28;20052;-62
2021/01/15 08:20:39;;;;;;;35.83;16.25;;;;;;;;;;4973892;28;20076;-62
2021/01/15 08:23:05;;;;;;;28.95;14.45;;;;;;;;;;4974745;28;20514;-62
2021/01/15 08:25:31;;;;;;;32.72;14.75;;;;;;;;;;4975826;28;20153;-62
2021/01/15 08:27:58;;;;;;;30.52;15.85;;;;;;;;;;4978753;28;20450;-62
2021/01/15 08:30:24;;;;;;;34.38;14.68;;;;;;;;;;4973713;28;20051;-62
2021/01/15 08:32:51;;;;;;;29.13;15.05;;;;;;;;;;4974377;28;20104;-62
2021/01/15 08:35:24;;;;;;;29.55;14.90;;;;;;;;;;4970881;28;20038;-62
2021/01/15 08:37:54;;;;;;;29.88;15.85;;;;;;;;;;4975191;28;20097;-62
2021/01/15 08:40:38;;;;;;;30.33;15.60;;;;;;;;;;4971813;28;20061;-62
2021/01/15 08:43:05;;;;;;;31.38;14.75;;;;;;;;;;4971140;28;20130;-61
2021/01/15 08:45:31;;;;;;;28.65;15.07;;;;;;;;;;4973184;28;20419;-61
2021/01/15 08:47:57;;;;;;;33.72;16.10;;;;;;;;;;4971431;28;20041;-61
2021/01/15 08:50:26;;;;;;;29.83;14.57;;;;;;;;;;4976296;28;20042;-61
2021/01/15 08:52:52;;;;;;;33.45;14.13;;;;;;;;;;4975598;28;20038;-61
2021/01/15 08:55:19;;;;;;;31.23;15.43;;;;;;;;;;4976137;28;20034;-61
2021/01/15 08:57:47;;;;;;;27.48;14.68;;;;;;;;;;4975762;28;20030;-62
2021/01/15 09:00:14;;;;;;;30.58;15.27;;;;;;;;;;4979820;28;20515;-61
2021/01/15 09:02:41;;;;;;;30.95;14.88;;;;;;;;;;4980842;28;20571;-62
2021/01/15 09:05:11;;;;;;;28.98;14.60;;;;;;;;;;4959285;28;676499;-61
2021/01/15 09:07:43;;;;;;;28.40;14.23;;;;;;;;;;4979795;28;20124;-61
2021/01/15 09:10:14;;;;;;;27.27;14.05;;;;;;;;;;4982438;28;20491;-61
2021/01/15 09:12:43;;;;;;;29.30;13.90;;;;;;;;;;4981650;28;20042;-62
2021/01/15 09:15:22;;;;;;;25.88;13.32;;;;;;;;;;4982131;28;20045;-62
2021/01/15 09:17:48;;;;;;;28.55;14.05;;;;;;;;;;4983865;28;20472;-61
2021/01/15 09:20:16;;;;;;;26.02;13.55;;;;;;;;;;4982753;28;20057;-61
2021/01/15 09:22:43;;;;;;;27.63;14.98;;;;;;;;;;4980460;28;20475;-61
2021/01/15 09:25:09;;;;;;;27.88;13.70;;;;;;;;;;4988180;28;20527;-61
2021/01/15 09:27:36;;;;;;;25.27;12.82;;;;;;;;;;4982538;28;20495;-61
2021/01/15 09:30:03;;;;;;;29.05;14.43;;;;;;;;;;4979923;28;20065;-60
2021/01/15 09:32:29;;;;;;;27.08;13.60;;;;;;;;;;4976559;28;20030;-61
2021/01/15 09:34:55;;;;;;;27.42;13.23;;;;;;;;;;4985554;28;20094;-60
2021/01/15 09:37:21;;;;;;;29.23;14.38;;;;;;;;;;4980723;28;20037;-60
2021/01/15 09:39:47;;;;;;;30.90;14.20;;;;;;;;;;4983487;28;20034;-61
2021/01/15 09:42:14;;;;;;;29.88;14.15;;;;;;;;;;4981985;28;20487;-61
2021/01/15 09:44:40;;;;;;;33.45;13.65;;;;;;;;;;4977261;28;20403;-60
2021/01/15 09:47:06;;;;;;;28.77;12.43;;;;;;;;;;4977293;28;20034;-61
2021/01/15 09:49:33;;;;;;;23.73;12.70;;;;;;;;;;4983387;28;20041;-61
2021/01/15 09:51:59;;;;;;;26.35;13.18;;;;;;;;;;4982385;28;20038;-60
2021/01/15 09:54:25;;;;;;;28.58;13.60;;;;;;;;;;4982169;28;20049;-61
2021/01/15 09:56:51;;;;;;;25.13;13.18;;;;;;;;;;4985216;28;20273;-60
2021/01/15 09:59:18;;;;;;;25.00;12.88;;;;;;;;;;4983240;28;20494;-60
2021/01/15 10:01:47;;;;;;;23.65;12.95;;;;;;;;;;4978177;28;20047;-60
2021/01/15 10:04:13;;;;;;;27.10;12.82;;;;;;;;;;4980573;28;20086;-60
2021/01/15 10:06:40;;;;;;;23.40;12.10;;;;;;;;;;4982049;28;20185;-60
2021/01/15 10:09:07;;;;;;;25.58;13.13;;;;;;;;;;4977263;28;20314;-60
2021/01/15 10:11:34;;;;;;;24.33;12.90;;;;;;;;;;4982970;28;20042;-60
2021/01/15 10:14:01;;;;;;;25.20;12.90;;;;;;;;;;4979915;28;20522;-61
2021/01/15 10:16:28;;;;;;;27.65;11.55;;;;;;;;;;4979518;28;20042;-60
2021/01/15 10:18:54;;;;;;;24.42;12.00;;;;;;;;;;4982753;28;20125;-61
2021/01/15 10:21:21;;;;;;;19.98;11.45;;;;;;;;;;4981581;28;20041;-61
2021/01/15 10:23:47;;;;;;;20.70;12.32;;;;;;;;;;4983324;28;20507;-60
2021/01/15 10:26:20;;;;;;;21.75;11.07;;;;;;;;;;4980360;28;20244;-61
2021/01/15 10:28:46;;;;;;;17.30;10.57;;;;;;;;;;4981778;28;20068;-61
2021/01/15 10:31:12;;;;;;;17.92;10.80;;;;;;;;;;4983924;28;20041;-61
2021/01/15 10:33:38;;;;;;;17.98;10.02;;;;;;;;;;4979219;28;20042;-60
2021/01/15 10:36:06;;;;;;;19.92;10.57;;;;;;;;;;4980684;28;20125;-61
2021/01/15 10:38:32;;;;;;;20.27;10.68;;;;;;;;;;4979384;28;20246;-61
2021/01/15 10:40:58;;;;;;;18.05;10.68;;;;;;;;;;4972791;28;20612;-60
2021/01/15 10:43:25;;;;;;;20.40;11.48;;;;;;;;;;4980237;28;20035;-61
2021/01/15 10:45:51;;;;;;;21.98;10.30;;;;;;;;;;4981690;28;20588;-60
2021/01/15 10:48:17;;;;;;;19.02;10.88;;;;;;;;;;4978872;28;20049;-61
2021/01/15 10:50:43;;;;;;;15.45;9.32;;;;;;;;;;4974989;28;20407;-61
2021/01/15 10:53:09;;;;;;;15.80;9.15;;;;;;;;;;4973731;28;20042;-60
2021/01/15 10:55:35;;;;;;;19.33;9.88;;;;;;;;;;4984075;28;20621;-60
2021/01/15 10:58:01;;;;;;;16.23;9.32;;;;;;;;;;4980330;28;20130;-60
2021/01/15 11:00:27;;;;;;;18.35;10.38;;;;;;;;;;4982538;28;20053;-60
2021/01/15 11:02:54;;;;;;;15.82;9.65;;;;;;;;;;4980081;28;20042;-60
2021/01/15 11:05:20;;;;;;;16.30;9.88;;;;;;;;;;4979854;28;20038;-60
2021/01/15 11:07:46;;;;;;;17.27;8.98;;;;;;;;;;4984565;28;20642;-60
2021/01/15 11:10:13;;;;;;;16.75;9.50;;;;;;;;;;4979910;28;20828;-61
2021/01/15 11:12:39;;;;;;;19.45;8.85;;;;;;;;;;4986503;28;20126;-60
2021/01/15 11:15:08;;;;;;;13.93;8.35;;;;;;;;;;4981944;28;20044;-61
2021/01/15 11:17:37;;;;;;;14.23;8.82;;;;;;;;;;4980186;28;20040;-60
2021/01/15 11:20:05;;;;;;;12.98;7.45;;;;;;;;;;4978354;28;20471;-61
2021/01/15 11:22:31;;;;;;;15.07;9.07;;;;;;;;;;4979997;28;20053;-61
2021/01/15 11:24:57;;;;;;;14.32;8.65;;;;;;;;;;4975300;28;20672;-61
2021/01/15 11:27:23;;;;;;;17.13;8.77;;;;;;;;;;4982249;28;20069;-60
2021/01/15 11:29:49;;;;;;;13.45;7.55;;;;;;;;;;4983886;28;20092;-60
2021/01/15 11:32:17;;;;;;;15.93;8.98;;;;;;;;;;4982048;28;20122;-61
2021/01/15 11:34:44;;;;;;;14.70;8.70;;;;;;;;;;4985367;28;20109;-61
2021/01/15 11:37:10;;;;;;;14.65;8.38;;;;;;;;;;4984729;28;20061;-61
2021/01/15 11:39:36;;;;;;;13.88;8.13;;;;;;;;;;4982733;28;20049;-61
2021/01/15 11:42:02;;;;;;;14.23;8.15;;;;;;;;;;4986822;28;20065;-61
2021/01/15 11:44:28;;;;;;;15.77;8.88;;;;;;;;;;4988866;28;20038;-61
2021/01/15 11:46:54;;;;;;;13.38;8.63;;;;;;;;;;4990497;28;20041;-60
2021/01/15 11:49:20;;;;;;;13.27;8.70;;;;;;;;;;4985017;28;20034;-61
2021/01/15 11:51:46;;;;;;;13.13;7.63;;;;;;;;;;4984312;28;20034;-61
2021/01/15 11:54:12;;;;;;;11.50;7.15;;;;;;;;;;4985344;28;20772;-61
2021/01/15 11:56:39;;;;;;;11.20;7.43;;;;;;;;;;4982580;28;20190;-62
2021/01/15 11:59:05;;;;;;;9.02;6.47;;;;;;;;;;4982785;28;20041;-62
2021/01/15 12:01:30;;;;;;;12.18;8.18;;;;;;;;;;4983916;28;20058;-62
2021/01/15 12:03:56;;;;;;;9.30;6.85;;;9.90;53.90;;;;;;4985029;28;20070;-62
2021/01/15 12:06:22;;;;;;;11.18;7.60;;;15.70;41.80;;;;;;4983266;28;20669;-62
2021/01/15 12:08:47;;;;;;;9.60;7.20;;;15.40;40.10;;;;;;4979751;28;20030;-62
2021/01/15 12:11:13;;;;;;;10.85;7.45;;;14.90;40.60;;;;;;4984074;28;20149;-62
2021/01/15 12:13:38;;;;;;;10.25;6.35;;;14.90;40.90;;;;;;4984089;28;20488;-61
2021/01/15 12:16:04;;;;;;;9.55;6.80;;;15.20;40.50;;;;;;4987569;28;20105;-61
2021/01/15 12:18:30;;;;;;;12.95;7.00;;;15.70;40.00;;;;;;4985105;28;20116;-61
2021/01/15 12:20:56;;;;;;;10.18;6.22;;;16.10;38.60;;;;;;4983012;28;20050;-61
2021/01/15 12:23:23;;;;;;;9.38;5.78;;;16.40;37.80;;;;;;4982216;28;20053;-61
2021/01/15 12:25:49;;;;;;;10.65;6.88;;;16.70;36.50;;;;;;4983954;28;20048;-61
2021/01/15 12:28:16;;;;;;;14.38;6.57;;;16.40;35.70;;;;;;4980531;28;20134;-62
2021/01/15 12:30:46;;;;;;;10.23;6.20;;;15.80;35.70;;;;;;4988417;28;20088;-61
2021/01/15 12:33:16;;;;;;;10.52;6.78;;;15.20;36.30;;;;;;4984298;28;20407;-61
2021/01/15 12:35:45;;;;;;;10.88;6.50;;;14.70;37.20;;;;;;4978838;28;20092;-61
2021/01/15 12:38:13;;;;;;;6.82;4.78;;;14.20;37.60;;;;;;4980766;28;20034;-61
2021/01/15 12:40:39;;;;;;;5.95;4.28;;;13.60;37.70;;;;;;4983726;28;20054;-61
2021/01/15 12:43:07;;;;;;;6.10;4.40;;;;;;;;;;4985892;28;20069;-61
2021/01/15 12:45:34;;;;;;;8.82;3.30;;;;;;;;;;4986308;28;20045;-62
2021/01/15 12:48:00;;;;;;;5.05;3.75;;;;;;;;;;4981426;28;20564;-62
2021/01/15 12:50:26;;;;;;;5.50;3.88;;;;;;;;;;4984236;28;20138;-61
2021/01/15 12:52:52;;;;;;;7.70;4.60;;;;;;;;;;4981698;28;20038;-61
2021/01/15 12:55:22;;;;;;;11.63;4.68;;;;;;;;;;4978752;28;20045;-61
2021/01/15 12:57:48;;;;;;;6.57;4.57;;;;;;;;;;4980414;28;20088;-61
2021/01/15 13:00:15;;;;;;;9.18;5.20;;;;;;;;;;4980421;28;20050;-61
2021/01/15 13:02:41;;;;;;;10.63;5.70;;;;;;;;;;4983546;28;20066;-61
2021/01/15 13:05:07;;;;;;;7.20;4.93;;;;;;;;;;4979211;28;20041;-61
2021/01/15 13:07:33;;;;;;;8.60;4.72;;;;;;;;;;4987261;28;20578;-61
2021/01/15 13:09:59;;;;;;;7.32;5.05;;;;;;;;;;4982724;28;20082;-61
2021/01/15 13:12:26;;;;;;;8.98;5.35;;;;;;;;;;4986890;28;20442;-63
2021/01/15 13:14:52;;;;;;;8.68;4.60;;;;;;;;;;4990635;28;20557;-61
2021/01/15 13:17:19;;;;;;;8.35;5.32;;;;;;;;;;4992866;28;20034;-60
2021/01/15 13:19:46;;;;;;;8.90;5.30;;;;;;;;;;4988762;28;20041;-61
2021/01/15 13:22:12;;;;;;;7.20;5.20;;;;;;;;;;4978528;28;20121;-61
2021/01/15 13:24:38;;;;;;;9.10;5.70;;;;;;;;;;4984284;28;20514;-61
2021/01/15 13:27:04;;;;;;;9.90;5.75;;;;;;;;;;4987370;28;20122;-61
2021/01/15 13:29:30;;;;;;;8.48;5.13;;;;;;;;;;4989878;28;20042;-61
2021/01/15 13:31:56;;;;;;;8.25;5.22;;;;;;;;;;4986656;28;20068;-61
2021/01/15 13:34:22;;;;;;;10.55;5.45;;;;;;;;;;4985439;28;20034;-61
2021/01/15 13:36:49;;;;;;;7.72;5.00;;;;;;;;;;4988744;28;20035;-61
2021/01/15 13:39:15;;;;;;;8.07;4.63;;;;;;;;;;4990653;28;21605;-61
2021/01/15 13:41:41;;;;;;;7.55;4.47;;;;;;;;;;4979484;28;20073;-61
2021/01/15 13:44:07;;;;;;;7.68;4.88;;;;;;;;;;4977491;28;20046;-61
2021/01/15 13:46:34;;;;;;;7.90;5.63;;;;;;;;;;4985505;28;20045;-61
2021/01/15 13:49:00;;;;;;;10.07;6.57;;;;;;;;;;4989343;28;20034;-61
2021/01/15 13:51:26;;;;;;;8.20;4.68;;;;;;;;;;4997214;28;20093;-62
2021/01/15 13:53:53;;;;;;;6.90;4.05;;;;;;;;;;4989522;28;20038;-62
2021/01/15 13:56:20;;;;;;;9.40;4.97;;;;;;;;;;4984642;28;20415;-61
2021/01/15 13:58:46;;;;;;;10.98;6.05;;;;;;;;;;4989281;28;22385;-61
2021/01/15 14:01:12;;;;;;;7.07;4.72;;;;;;;;;;4988999;28;20044;-61
2021/01/15 14:03:38;;;;;;;11.10;7.15;;;;;;;;;;4986374;28;20037;-61
2021/01/15 14:06:04;;;;;;;9.45;6.70;;;;;;;;;;4984747;28;20586;-61
2021/01/15 14:08:30;;;;;;;7.60;5.10;;;;;;;;;;4986564;28;20753;-61
2021/01/15 14:10:56;;;;;;;7.70;5.13;;;;;;;;;;4987941;28;20041;-61
2021/01/15 14:13:22;;;;;;;14.15;6.22;;;;;;;;;;4982032;28;20045;-61
2021/01/15 14:15:48;;;;;;;10.05;5.90;;;;;;;;;;4982985;28;20046;-61
2021/01/15 14:18:14;;;;;;;10.23;6.10;;;;;;;;;;4986903;28;20090;-61
2021/01/15 14:20:40;;;;;;;8.50;4.93;;;;;;;;;;4988589;28;20467;-61